sensor_id;sensor_type;location;lat;lon;timestamp;temperature;humidity
12889;DHT22;56848;49.896;11.424;2022-10-17T04:01:38;10.20;99.90
12889;DHT22;56848;49.896;11.424;2022-10-17T04:04:04;10.10;99.90
12889;DHT22;56848;49.896;11.424;2022-10-17T04:06:30;10.10;99.90
12889;DHT22;56848;49.896;11.424;2022-10-17T04:08:56;10.00;99.90
12889;DHT22;56848;49.896;11.424;2022-10-17T04:11:22;9.90;99.90
12889;DHT22;56848;49.896;11.424;2022-10-17T04:13:52;9.80;99.90
12889;DHT22;56848;49.896;11.424;2022-10-17T04:16:19;9.70;99.90
12889;DHT22;56848;49.896;11.424;2022-10-17T04:18:44;9.60;99.90
12889;DHT22;56848;49.896;11.424;2022-10-17T04:21:11;9.40;99.90
12889;DHT22;56848;49.896;11.424;2022-10-17T04:23:36;9.40;99.90
12889;DHT22;56848;49.896;11.424;2022-10-17T04:26:03;9.40;99.90
12889;DHT22;56848;49.896;11.424;2022-10-17T04:28:30;9.40;99.90
12889;DHT22;56848;49.896;11.424;2022-10-17T04:33:22;9.40;99.90
12889;DHT22;56848;49.896;11.424;2022-10-17T04:35:59;9.20;99.90
12889;DHT22;56848;49.896;11.424;2022-10-17T04:38:25;9.10;99.90
12889;DHT22;56848;49.896;11.424;2022-10-17T04:40:51;9.00;99.90
12889;DHT22;56848;49.896;11.424;2022-10-17T04:43:16;9.00;99.90
12889;DHT22;56848;49.896;11.424;2022-10-17T04:45:42;8.90;99.90
12889;DHT22;56848;49.896;11.424;2022-10-17T04:48:08;8.80;99.90
12889;DHT22;56848;49.896;11.424;2022-10-17T04:50:33;8.90;99.90
12889;DHT22;56848;49.896;11.424;2022-10-17T04:52:59;9.00;99.90
12889;DHT22;56848;49.896;11.424;2022-10-17T04:55:24;8.90;99.90
12889;DHT22;56848;49.896;11.424;2022-10-17T04:57:50;8.80;99.90
12889;DHT22;56848;49.896;11.424;2022-10-17T05:00:16;8.70;99.90
12889;DHT22;56848;49.896;11.424;2022-10-17T05:02:41;8.80;99.90
12889;DHT22;56848;49.896;11.424;2022-10-17T05:05:07;8.90;99.90
12889;DHT22;56848;49.896;11.424;2022-10-17T05:07:33;9.00;99.90
12889;DHT22;56848;49.896;11.424;2022-10-17T05:09:58;9.10;99.90
12889;DHT22;56848;49.896;11.424;2022-10-17T05:12:24;9.20;99.90
12889;DHT22;56848;49.896;11.424;2022-10-17T05:14:50;9.20;99.90
12889;DHT22;56848;49.896;11.424;2022-10-17T05:17:15;9.30;99.90
12889;DHT22;56848;49.896;11.424;2022-10-17T05:19:41;9.40;99.90
12889;DHT22;56848;49.896;11.424;2022-10-17T05:22:07;9.40;99.90
12889;DHT22;56848;49.896;11.424;2022-10-17T05:24:33;9.20;99.90
12889;DHT22;56848;49.896;11.424;2022-10-17T05:26:58;9.00;99.90
12889;DHT22;56848;49.896;11.424;2022-10-17T05:29:24;8.90;99.90
12889;DHT22;56848;49.896;11.424;2022-10-17T05:31:49;8.80;99.90
12889;DHT22;56848;49.896;11.424;2022-10-17T05:34:15;8.80;99.90
12889;DHT22;56848;49.896;11.424;2022-10-17T05:36:41;8.80;99.90
12889;DHT22;56848;49.896;11.424;2022-10-17T05:39:06;8.90;99.90
12889;DHT22;56848;49.896;11.424;2022-10-17T05:41:33;9.00;99.90
12889;DHT22;56848;49.896;11.424;2022-10-17T05:43:59;9.00;99.90
12889;DHT22;56848;49.896;11.424;2022-10-17T05:46:24;9.10;99.90
12889;DHT22;56848;49.896;11.424;2022-10-17T05:48:50;9.00;99.90
12889;DHT22;56848;49.896;11.424;2022-10-17T05:51:16;9.10;99.90
12889;DHT22;56848;49.896;11.424;2022-10-17T05:53:42;9.20;99.90
12889;DHT22;56848;49.896;11.424;2022-10-17T05:56:10;9.20;99.90
12889;DHT22;56848;49.896;11.424;2022-10-17T05:58:39;9.30;99.90
12889;DHT22;56848;49.896;11.424;2022-10-17T06:01:05;9.30;99.90
12889;DHT22;56848;49.896;11.424;2022-10-17T06:03:31;9.50;99.90
12889;DHT22;56848;49.896;11.424;2022-10-17T06:06:03;9.40;99.90
12889;DHT22;56848;49.896;11.424;2022-10-17T06:08:29;9.50;99.90
12889;DHT22;56848;49.896;11.424;2022-10-17T06:10:54;9.60;99.90
12889;DHT22;56848;49.896;11.424;2022-10-17T06:13:20;9.50;99.90
12889;DHT22;56848;49.896;11.424;2022-10-17T06:15:45;9.50;99.90
12889;DHT22;56848;49.896;11.424;2022-10-17T06:18:11;9.50;99.90
12889;DHT22;56848;49.896;11.424;2022-10-17T06:20:37;9.70;99.90
12889;DHT22;56848;49.896;11.424;2022-10-17T06:23:02;9.70;99.90
12889;DHT22;56848;49.896;11.424;2022-10-17T06:25:32;9.90;99.90
12889;DHT22;56848;49.896;11.424;2022-10-17T06:27:58;10.20;99.90
12889;DHT22;56848;49.896;11.424;2022-10-17T06:30:23;10.30;99.90
12889;DHT22;56848;49.896;11.424;2022-10-17T06:32:51;10.20;99.90
12889;DHT22;56848;49.896;11.424;2022-10-17T06:35:17;10.30;99.90
12889;DHT22;56848;49.896;11.424;2022-10-17T06:37:43;10.40;99.90
12889;DHT22;56848;49.896;11.424;2022-10-17T06:40:09;10.60;99.90
12889;DHT22;56848;49.896;11.424;2022-10-17T06:42:39;10.90;99.90
12889;DHT22;56848;49.896;11.424;2022-10-17T06:45:06;11.20;99.90
12889;DHT22;56848;49.896;11.424;2022-10-17T06:47:32;11.50;99.90
12889;DHT22;56848;49.896;11.424;2022-10-17T06:49:57;11.50;99.90
12889;DHT22;56848;49.896;11.424;2022-10-17T06:52:23;11.60;99.90
12889;DHT22;56848;49.896;11.424;2022-10-17T06:54:49;11.80;99.90
12889;DHT22;56848;49.896;11.424;2022-10-17T06:57:16;11.90;99.90
12889;DHT22;56848;49.896;11.424;2022-10-17T06:59:42;12.10;99.90
12889;DHT22;56848;49.896;11.424;2022-10-17T07:02:09;12.30;99.90
12889;DHT22;56848;49.896;11.424;2022-10-17T07:04:35;12.30;99.90
12889;DHT22;56848;49.896;11.424;2022-10-17T07:07:00;12.40;99.90
12889;DHT22;56848;49.896;11.424;2022-10-17T07:09:28;12.50;99.90
12889;DHT22;56848;49.896;11.424;2022-10-17T07:11:54;12.60;99.90
12889;DHT22;56848;49.896;11.424;2022-10-17T07:14:20;12.60;99.90
12889;DHT22;56848;49.896;11.424;2022-10-17T07:16:45;12.60;99.90
12889;DHT22;56848;49.896;11.424;2022-10-17T07:19:11;12.70;99.90
12889;DHT22;56848;49.896;11.424;2022-10-17T07:21:36;12.80;99.90
12889;DHT22;56848;49.896;11.424;2022-10-17T07:24:02;12.80;99.90
12889;DHT22;56848;49.896;11.424;2022-10-17T07:26:28;12.80;99.90
12889;DHT22;56848;49.896;11.424;2022-10-17T07:28:54;13.00;99.90
12889;DHT22;56848;49.896;11.424;2022-10-17T07:31:21;13.10;99.90
12889;DHT22;56848;49.896;11.424;2022-10-17T07:33:47;13.00;99.90
12889;DHT22;56848;49.896;11.424;2022-10-17T07:36:14;13.00;99.90
12889;DHT22;56848;49.896;11.424;2022-10-17T07:38:40;13.10;99.90
12889;DHT22;56848;49.896;11.424;2022-10-17T07:41:08;13.00;99.90
12889;DHT22;56848;49.896;11.424;2022-10-17T07:43:34;13.00;99.90
12889;DHT22;56848;49.896;11.424;2022-10-17T07:46:01;13.20;99.90
12889;DHT22;56848;49.896;11.424;2022-10-17T07:48:28;13.20;99.90
12889;DHT22;56848;49.896;11.424;2022-10-17T07:50:53;13.40;99.90
12889;DHT22;56848;49.896;11.424;2022-10-17T07:53:19;13.60;99.90
12889;DHT22;56848;49.896;11.424;2022-10-17T07:55:45;13.60;99.90
12889;DHT22;56848;49.896;11.424;2022-10-17T07:58:12;13.70;99.90
12889;DHT22;56848;49.896;11.424;2022-10-17T08:00:38;13.80;99.90
12889;DHT22;56848;49.896;11.424;2022-10-17T08:03:04;14.00;99.90
12889;DHT22;56848;49.896;11.424;2022-10-17T08:05:30;14.20;99.90
12889;DHT22;56848;49.896;11.424;2022-10-17T08:07:56;14.20;99.90
12889;DHT22;56848;49.896;11.424;2022-10-17T08:10:22;14.40;99.90
12889;DHT22;56848;49.896;11.424;2022-10-17T08:12:55;14.60;99.90
12889;DHT22;56848;49.896;11.424;2022-10-17T08:15:22;14.70;99.90
12889;DHT22;56848;49.896;11.424;2022-10-17T08:17:48;14.70;99.90
12889;DHT22;56848;49.896;11.424;2022-10-17T08:20:14;15.10;99.90
12889;DHT22;56848;49.896;11.424;2022-10-17T08:22:40;15.10;99.90
12889;DHT22;56848;49.896;11.424;2022-10-17T08:25:06;15.10;99.90
12889;DHT22;56848;49.896;11.424;2022-10-17T08:27:32;15.20;99.90
12889;DHT22;56848;49.896;11.424;2022-10-17T08:29:58;15.20;99.90
12889;DHT22;56848;49.896;11.424;2022-10-17T08:32:25;15.30;99.90
12889;DHT22;56848;49.896;11.424;2022-10-17T08:34:52;15.50;99.90
12889;DHT22;56848;49.896;11.424;2022-10-17T08:37:20;15.50;99.90
12889;DHT22;56848;49.896;11.424;2022-10-17T08:39:46;15.60;99.90
12889;DHT22;56848;49.896;11.424;2022-10-17T08:48:01;15.80;99.90
12889;DHT22;56848;49.896;11.424;2022-10-17T08:50:38;15.90;99.90
12889;DHT22;56848;49.896;11.424;2022-10-17T08:53:35;16.20;99.90
12889;DHT22;56848;49.896;11.424;2022-10-17T08:56:34;16.30;99.90
12889;DHT22;56848;49.896;11.424;2022-10-17T08:59:04;16.50;99.90
12889;DHT22;56848;49.896;11.424;2022-10-17T09:01:46;16.30;99.90
12889;DHT22;56848;49.896;11.424;2022-10-17T09:07:18;16.50;99.90
12889;DHT22;56848;49.896;11.424;2022-10-17T09:09:59;16.40;99.90
12889;DHT22;56848;49.896;11.424;2022-10-17T09:15:10;16.90;99.90
12889;DHT22;56848;49.896;11.424;2022-10-17T09:17:55;17.00;99.90
12889;DHT22;56848;49.896;11.424;2022-10-17T09:20:35;17.00;99.90
12889;DHT22;56848;49.896;11.424;2022-10-17T09:25:45;17.30;99.90
12889;DHT22;56848;49.896;11.424;2022-10-17T09:28:20;17.30;99.90
12889;DHT22;56848;49.896;11.424;2022-10-17T09:30:50;17.60;99.90
12889;DHT22;56848;49.896;11.424;2022-10-17T09:33:22;17.70;99.90
12889;DHT22;56848;49.896;11.424;2022-10-17T09:35:50;17.80;99.90
12889;DHT22;56848;49.896;11.424;2022-10-17T09:38:22;17.90;99.90
12889;DHT22;56848;49.896;11.424;2022-10-17T09:40:55;17.90;99.90
12889;DHT22;56848;49.896;11.424;2022-10-17T09:43:21;17.90;99.90
12889;DHT22;56848;49.896;11.424;2022-10-17T09:46:55;17.70;99.90
12889;DHT22;56848;49.896;11.424;2022-10-17T09:49:00;17.80;99.90
12889;DHT22;56848;49.896;11.424;2022-10-17T09:51:27;18.20;99.90
12889;DHT22;56848;49.896;11.424;2022-10-17T09:53:58;18.20;99.90
12889;DHT22;56848;49.896;11.424;2022-10-17T09:56:25;18.50;99.90
12889;DHT22;56848;49.896;11.424;2022-10-17T09:58:57;18.50;99.90
12889;DHT22;56848;49.896;11.424;2022-10-17T10:01:32;18.30;99.90
12889;DHT22;56848;49.896;11.424;2022-10-17T10:04:12;18.30;99.90
12889;DHT22;56848;49.896;11.424;2022-10-17T10:06:39;18.40;99.90
12889;DHT22;56848;49.896;11.424;2022-10-17T10:09:06;18.70;99.90
12889;DHT22;56848;49.896;11.424;2022-10-17T10:11:56;18.60;99.90
12889;DHT22;56848;49.896;11.424;2022-10-17T10:14:30;18.80;99.90
12889;DHT22;56848;49.896;11.424;2022-10-17T10:17:00;19.00;99.90
12889;DHT22;56848;49.896;11.424;2022-10-17T10:19:35;19.00;99.90
12889;DHT22;56848;49.896;11.424;2022-10-17T10:22:07;19.00;99.90
12889;DHT22;56848;49.896;11.424;2022-10-17T10:24:39;18.90;99.90
12889;DHT22;56848;49.896;11.424;2022-10-17T10:27:05;19.10;99.90
12889;DHT22;56848;49.896;11.424;2022-10-17T10:29:40;19.10;99.90
12889;DHT22;56848;49.896;11.424;2022-10-17T10:35:17;19.30;99.90
12889;DHT22;56848;49.896;11.424;2022-10-17T10:37:41;19.40;99.90
12889;DHT22;56848;49.896;11.424;2022-10-17T10:40:19;19.30;99.90
12889;DHT22;56848;49.896;11.424;2022-10-17T10:42:50;19.40;99.90
12889;DHT22;56848;49.896;11.424;2022-10-17T10:45:21;19.80;99.90
12889;DHT22;56848;49.896;11.424;2022-10-17T10:48:00;19.70;99.90
12889;DHT22;56848;49.896;11.424;2022-10-17T10:50:39;19.70;99.90
12889;DHT22;56848;49.896;11.424;2022-10-17T10:55:57;19.70;99.90
12889;DHT22;56848;49.896;11.424;2022-10-17T10:58:47;19.70;99.90
12889;DHT22;56848;49.896;11.424;2022-10-17T11:06:38;19.60;99.90
12889;DHT22;56848;49.896;11.424;2022-10-17T11:09:34;19.40;99.90
12889;DHT22;56848;49.896;11.424;2022-10-17T11:12:10;19.40;99.90
12889;DHT22;56848;49.896;11.424;2022-10-17T11:17:48;19.70;99.90
12889;DHT22;56848;49.896;11.424;2022-10-17T11:20:29;19.70;99.90
12889;DHT22;56848;49.896;11.424;2022-10-17T11:25:50;19.90;99.90
12889;DHT22;56848;49.896;11.424;2022-10-17T11:28:21;19.80;99.90
12889;DHT22;56848;49.896;11.424;2022-10-17T11:31:09;19.90;99.90
12889;DHT22;56848;49.896;11.424;2022-10-17T11:36:07;20.10;99.90
12889;DHT22;56848;49.896;11.424;2022-10-17T11:38:57;19.90;99.90
12889;DHT22;56848;49.896;11.424;2022-10-17T11:41:44;19.90;99.90
12889;DHT22;56848;49.896;11.424;2022-10-17T11:49:41;20.30;99.90
12889;DHT22;56848;49.896;11.424;2022-10-17T11:52:32;20.30;99.90
12889;DHT22;56848;49.896;11.424;2022-10-17T11:55:02;20.50;99.90
12889;DHT22;56848;49.896;11.424;2022-10-17T12:08:56;20.40;99.90
12889;DHT22;56848;49.896;11.424;2022-10-17T12:14:41;20.20;99.90
12889;DHT22;56848;49.896;11.424;2022-10-17T12:25:32;20.80;99.90
12889;DHT22;56848;49.896;11.424;2022-10-17T12:34:16;20.90;99.90
12889;DHT22;56848;49.896;11.424;2022-10-17T12:52:22;20.60;99.90
12889;DHT22;56848;49.896;11.424;2022-10-17T12:57:48;21.00;99.90
12889;DHT22;56848;49.896;11.424;2022-10-17T13:00:40;21.20;99.90
12889;DHT22;56848;49.896;11.424;2022-10-17T13:03:21;21.10;99.90
12889;DHT22;56848;49.896;11.424;2022-10-17T13:05:51;21.10;99.90
12889;DHT22;56848;49.896;11.424;2022-10-17T13:08:22;20.90;99.90
12889;DHT22;56848;49.896;11.424;2022-10-17T13:10:50;20.90;99.90
12889;DHT22;56848;49.896;11.424;2022-10-17T13:13:20;21.00;99.90
12889;DHT22;56848;49.896;11.424;2022-10-17T13:15:52;21.10;99.90
12889;DHT22;56848;49.896;11.424;2022-10-17T13:18:21;21.20;99.90
12889;DHT22;56848;49.896;11.424;2022-10-17T13:20:59;21.10;99.90
12889;DHT22;56848;49.896;11.424;2022-10-17T13:23:29;21.00;99.90
12889;DHT22;56848;49.896;11.424;2022-10-17T13:28:28;20.90;99.90
12889;DHT22;56848;49.896;11.424;2022-10-17T13:30:54;20.90;99.90
12889;DHT22;56848;49.896;11.424;2022-10-17T13:33:38;21.00;99.90
12889;DHT22;56848;49.896;11.424;2022-10-17T13:36:13;21.00;99.90
12889;DHT22;56848;49.896;11.424;2022-10-17T13:38:41;20.80;99.90
12889;DHT22;56848;49.896;11.424;2022-10-17T13:41:11;20.60;99.90
12889;DHT22;56848;49.896;11.424;2022-10-17T13:43:38;20.90;99.90
12889;DHT22;56848;49.896;11.424;2022-10-17T13:46:05;21.10;99.90
12889;DHT22;56848;49.896;11.424;2022-10-17T13:48:35;20.90;99.90
12889;DHT22;56848;49.896;11.424;2022-10-17T13:51:04;21.00;99.90
12889;DHT22;56848;49.896;11.424;2022-10-17T13:53:36;20.70;99.90
12889;DHT22;56848;49.896;11.424;2022-10-17T13:58:47;20.50;99.90
12889;DHT22;56848;49.896;11.424;2022-10-17T14:01:14;20.70;99.90
12889;DHT22;56848;49.896;11.424;2022-10-17T14:03:41;20.80;99.90
12889;DHT22;56848;49.896;11.424;2022-10-17T14:06:16;20.90;99.90
12889;DHT22;56848;49.896;11.424;2022-10-17T14:08:58;20.80;99.90
12889;DHT22;56848;49.896;11.424;2022-10-17T14:11:35;20.70;99.90
12889;DHT22;56848;49.896;11.424;2022-10-17T14:14:03;20.80;99.90
12889;DHT22;56848;49.896;11.424;2022-10-17T14:16:36;20.80;99.90
12889;DHT22;56848;49.896;11.424;2022-10-17T14:19:03;20.80;99.90
12889;DHT22;56848;49.896;11.424;2022-10-17T14:21:29;20.80;99.90
12889;DHT22;56848;49.896;11.424;2022-10-17T14:26:51;20.80;99.90
12889;DHT22;56848;49.896;11.424;2022-10-17T14:29:24;20.70;99.90
12889;DHT22;56848;49.896;11.424;2022-10-17T14:32:05;20.60;99.90
12889;DHT22;56848;49.896;11.424;2022-10-17T14:34:38;20.60;99.90
12889;DHT22;56848;49.896;11.424;2022-10-17T14:37:26;20.60;99.90
12889;DHT22;56848;49.896;11.424;2022-10-17T14:39:54;20.50;99.90
12889;DHT22;56848;49.896;11.424;2022-10-17T14:42:21;20.40;99.90
12889;DHT22;56848;49.896;11.424;2022-10-17T14:44:49;20.30;99.90
12889;DHT22;56848;49.896;11.424;2022-10-17T14:47:24;20.20;99.90
12889;DHT22;56848;49.896;11.424;2022-10-17T14:50:23;20.10;99.90
12889;DHT22;56848;49.896;11.424;2022-10-17T14:55:30;19.80;99.90
12889;DHT22;56848;49.896;11.424;2022-10-17T14:57:56;19.80;99.90
12889;DHT22;56848;49.896;11.424;2022-10-17T15:00:22;19.70;99.90
12889;DHT22;56848;49.896;11.424;2022-10-17T15:02:49;19.70;99.90
12889;DHT22;56848;49.896;11.424;2022-10-17T15:05:15;19.80;99.90
12889;DHT22;56848;49.896;11.424;2022-10-17T15:07:41;19.70;99.90
12889;DHT22;56848;49.896;11.424;2022-10-17T15:10:27;19.70;99.90
12889;DHT22;56848;49.896;11.424;2022-10-17T15:12:55;19.80;99.90
12889;DHT22;56848;49.896;11.424;2022-10-17T15:15:20;19.90;99.90
12889;DHT22;56848;49.896;11.424;2022-10-17T15:17:46;19.80;99.90
12889;DHT22;56848;49.896;11.424;2022-10-17T15:20:15;19.60;99.90
12889;DHT22;56848;49.896;11.424;2022-10-17T15:22:41;19.40;99.90
12889;DHT22;56848;49.896;11.424;2022-10-17T15:25:07;19.20;99.90
12889;DHT22;56848;49.896;11.424;2022-10-17T15:27:32;19.00;99.90
12889;DHT22;56848;49.896;11.424;2022-10-17T15:29:58;18.90;99.90
12889;DHT22;56848;49.896;11.424;2022-10-17T15:32:23;18.70;99.90
12889;DHT22;56848;49.896;11.424;2022-10-17T15:34:49;18.50;99.90
12889;DHT22;56848;49.896;11.424;2022-10-17T15:37:23;18.40;99.90
12889;DHT22;56848;49.896;11.424;2022-10-17T15:39:50;18.40;99.90
12889;DHT22;56848;49.896;11.424;2022-10-17T15:42:17;18.30;99.90
12889;DHT22;56848;49.896;11.424;2022-10-17T15:44:43;18.30;99.90
12889;DHT22;56848;49.896;11.424;2022-10-17T15:47:24;18.10;99.90
12889;DHT22;56848;49.896;11.424;2022-10-17T15:49:51;18.00;99.90
12889;DHT22;56848;49.896;11.424;2022-10-17T15:52:17;17.90;99.90
12889;DHT22;56848;49.896;11.424;2022-10-17T15:54:44;17.70;99.90
12889;DHT22;56848;49.896;11.424;2022-10-17T15:57:23;17.40;99.90
12889;DHT22;56848;49.896;11.424;2022-10-17T15:59:50;17.40;99.90
12889;DHT22;56848;49.896;11.424;2022-10-17T16:02:17;17.10;99.90
12889;DHT22;56848;49.896;11.424;2022-10-17T16:04:43;17.00;99.90
12889;DHT22;56848;49.896;11.424;2022-10-17T16:07:09;17.10;99.90
12889;DHT22;56848;49.896;11.424;2022-10-17T16:09:35;17.20;99.90
12889;DHT22;56848;49.896;11.424;2022-10-17T16:12:03;16.90;99.90
12889;DHT22;56848;49.896;11.424;2022-10-17T16:14:29;16.80;99.90
12889;DHT22;56848;49.896;11.424;2022-10-17T16:16:57;16.80;99.90
12889;DHT22;56848;49.896;11.424;2022-10-17T16:19:24;16.70;99.90
12889;DHT22;56848;49.896;11.424;2022-10-17T16:21:52;16.50;99.90
12889;DHT22;56848;49.896;11.424;2022-10-17T16:24:18;16.30;99.90
12889;DHT22;56848;49.896;11.424;2022-10-17T16:26:43;16.40;99.90
12889;DHT22;56848;49.896;11.424;2022-10-17T16:29:09;16.40;99.90
12889;DHT22;56848;49.896;11.424;2022-10-17T16:31:36;16.50;99.90
12889;DHT22;56848;49.896;11.424;2022-10-17T16:34:04;16.40;99.90
12889;DHT22;56848;49.896;11.424;2022-10-17T16:36:31;16.20;99.90
12889;DHT22;56848;49.896;11.424;2022-10-17T16:38:57;16.10;99.90
12889;DHT22;56848;49.896;11.424;2022-10-17T16:41:25;16.00;99.90
12889;DHT22;56848;49.896;11.424;2022-10-17T16:43:53;15.90;99.90
12889;DHT22;56848;49.896;11.424;2022-10-17T16:46:19;15.70;99.90
12889;DHT22;56848;49.896;11.424;2022-10-17T16:48:45;15.70;99.90
12889;DHT22;56848;49.896;11.424;2022-10-17T16:51:12;15.50;99.90
12889;DHT22;56848;49.896;11.424;2022-10-17T16:53:39;15.50;99.90
12889;DHT22;56848;49.896;11.424;2022-10-17T16:56:09;15.50;99.90
12889;DHT22;56848;49.896;11.424;2022-10-17T16:58:35;15.60;99.90
12889;DHT22;56848;49.896;11.424;2022-10-17T17:01:09;15.40;99.90
12889;DHT22;56848;49.896;11.424;2022-10-17T17:03:36;15.70;99.90
12889;DHT22;56848;49.896;11.424;2022-10-17T17:06:03;15.50;99.90
12889;DHT22;56848;49.896;11.424;2022-10-17T17:08:30;15.40;99.90
12889;DHT22;56848;49.896;11.424;2022-10-17T17:10:56;15.20;99.90
12889;DHT22;56848;49.896;11.424;2022-10-17T17:13:23;15.20;99.90
12889;DHT22;56848;49.896;11.424;2022-10-17T17:15:49;15.30;99.90
12889;DHT22;56848;49.896;11.424;2022-10-17T17:18:19;15.30;99.90
12889;DHT22;56848;49.896;11.424;2022-10-17T17:20:44;15.30;99.90
12889;DHT22;56848;49.896;11.424;2022-10-17T17:23:10;15.30;99.90
12889;DHT22;56848;49.896;11.424;2022-10-17T17:25:36;15.20;99.90
12889;DHT22;56848;49.896;11.424;2022-10-17T17:28:04;15.10;99.90
12889;DHT22;56848;49.896;11.424;2022-10-17T17:30:32;15.00;99.90
12889;DHT22;56848;49.896;11.424;2022-10-17T17:32:58;14.80;99.90
12889;DHT22;56848;49.896;11.424;2022-10-17T17:35:25;14.80;99.90
12889;DHT22;56848;49.896;11.424;2022-10-17T17:37:51;14.90;99.90
12889;DHT22;56848;49.896;11.424;2022-10-17T17:40:16;14.90;99.90
12889;DHT22;56848;49.896;11.424;2022-10-17T17:42:42;14.70;99.90
12889;DHT22;56848;49.896;11.424;2022-10-17T17:45:08;14.60;99.90
12889;DHT22;56848;49.896;11.424;2022-10-17T17:47:33;14.50;99.90
12889;DHT22;56848;49.896;11.424;2022-10-17T17:49:59;14.50;99.90
12889;DHT22;56848;49.896;11.424;2022-10-17T17:52:25;14.50;99.90
12889;DHT22;56848;49.896;11.424;2022-10-17T17:54:50;14.40;99.90
12889;DHT22;56848;49.896;11.424;2022-10-17T17:57:16;14.30;99.90
12889;DHT22;56848;49.896;11.424;2022-10-17T17:59:41;14.30;99.90
12889;DHT22;56848;49.896;11.424;2022-10-17T18:02:09;14.20;99.90
12889;DHT22;56848;49.896;11.424;2022-10-17T18:04:34;14.20;99.90
12889;DHT22;56848;49.896;11.424;2022-10-17T18:07:00;14.20;99.90
12889;DHT22;56848;49.896;11.424;2022-10-17T18:09:26;14.20;99.90
12889;DHT22;56848;49.896;11.424;2022-10-17T18:11:51;14.20;99.90
12889;DHT22;56848;49.896;11.424;2022-10-17T18:14:17;14.30;99.90
12889;DHT22;56848;49.896;11.424;2022-10-17T18:16:47;14.20;99.90
12889;DHT22;56848;49.896;11.424;2022-10-17T18:19:13;14.10;99.90
12889;DHT22;56848;49.896;11.424;2022-10-17T18:21:39;14.10;99.90
12889;DHT22;56848;49.896;11.424;2022-10-17T18:24:05;14.20;99.90
12889;DHT22;56848;49.896;11.424;2022-10-17T18:26:31;14.10;99.90
12889;DHT22;56848;49.896;11.424;2022-10-17T18:28:57;14.00;99.90
12889;DHT22;56848;49.896;11.424;2022-10-17T18:31:24;13.90;99.90
12889;DHT22;56848;49.896;11.424;2022-10-17T18:33:57;13.90;99.90
12889;DHT22;56848;49.896;11.424;2022-10-17T18:36:25;13.90;99.90
12889;DHT22;56848;49.896;11.424;2022-10-17T18:38:52;13.90;99.90
12889;DHT22;56848;49.896;11.424;2022-10-17T18:41:19;13.90;99.90
12889;DHT22;56848;49.896;11.424;2022-10-17T18:43:46;13.90;99.90
12889;DHT22;56848;49.896;11.424;2022-10-17T18:46:20;13.90;99.90
12889;DHT22;56848;49.896;11.424;2022-10-17T18:48:48;13.80;99.90
12889;DHT22;56848;49.896;11.424;2022-10-17T18:51:19;13.80;99.90
12889;DHT22;56848;49.896;11.424;2022-10-17T18:53:48;14.00;99.90
12889;DHT22;56848;49.896;11.424;2022-10-17T18:56:14;14.40;99.90
12889;DHT22;56848;49.896;11.424;2022-10-17T18:58:40;14.60;99.90
12889;DHT22;56848;49.896;11.424;2022-10-17T19:01:14;14.30;99.90
12889;DHT22;56848;49.896;11.424;2022-10-17T19:03:41;14.00;99.90
12889;DHT22;56848;49.896;11.424;2022-10-17T19:06:09;14.10;99.90
12889;DHT22;56848;49.896;11.424;2022-10-17T19:08:35;14.30;99.90
12889;DHT22;56848;49.896;11.424;2022-10-17T19:11:09;14.10;99.90
12889;DHT22;56848;49.896;11.424;2022-10-17T19:13:35;13.90;99.90
12889;DHT22;56848;49.896;11.424;2022-10-17T19:16:06;13.90;99.90
12889;DHT22;56848;49.896;11.424;2022-10-17T19:18:32;13.70;99.90
12889;DHT22;56848;49.896;11.424;2022-10-17T19:21:08;13.70;99.90
12889;DHT22;56848;49.896;11.424;2022-10-17T19:23:35;13.70;99.90
12889;DHT22;56848;49.896;11.424;2022-10-17T19:28:28;13.50;99.90
12889;DHT22;56848;49.896;11.424;2022-10-17T19:30:53;13.50;99.90
12889;DHT22;56848;49.896;11.424;2022-10-17T19:33:19;13.40;99.90
12889;DHT22;56848;49.896;11.424;2022-10-17T19:36:00;13.30;99.90
12889;DHT22;56848;49.896;11.424;2022-10-17T19:38:26;13.30;99.90
12889;DHT22;56848;49.896;11.424;2022-10-17T19:40:52;13.20;99.90
12889;DHT22;56848;49.896;11.424;2022-10-17T19:43:18;13.30;99.90
12889;DHT22;56848;49.896;11.424;2022-10-17T19:45:56;13.30;99.90
12889;DHT22;56848;49.896;11.424;2022-10-17T19:48:23;13.30;99.90
12889;DHT22;56848;49.896;11.424;2022-10-17T19:50:48;13.20;99.90
12889;DHT22;56848;49.896;11.424;2022-10-17T19:53:15;13.20;99.90
12889;DHT22;56848;49.896;11.424;2022-10-17T19:55:41;13.20;99.90
12889;DHT22;56848;49.896;11.424;2022-10-17T19:58:07;13.30;99.90
12889;DHT22;56848;49.896;11.424;2022-10-17T20:00:32;13.20;99.90
12889;DHT22;56848;49.896;11.424;2022-10-17T20:02:58;13.00;99.90
12889;DHT22;56848;49.896;11.424;2022-10-17T20:05:25;12.80;99.90
12889;DHT22;56848;49.896;11.424;2022-10-17T20:07:50;13.10;99.90
12889;DHT22;56848;49.896;11.424;2022-10-17T20:10:16;13.20;99.90
12889;DHT22;56848;49.896;11.424;2022-10-17T20:12:43;13.20;99.90
12889;DHT22;56848;49.896;11.424;2022-10-17T20:15:09;13.10;99.90
12889;DHT22;56848;49.896;11.424;2022-10-17T20:17:34;12.80;99.90
12889;DHT22;56848;49.896;11.424;2022-10-17T20:20:00;12.80;99.90
12889;DHT22;56848;49.896;11.424;2022-10-17T20:22:25;12.90;99.90
12889;DHT22;56848;49.896;11.424;2022-10-17T20:24:51;12.70;99.90
12889;DHT22;56848;49.896;11.424;2022-10-17T20:27:16;12.70;99.90
